Terminal Aerodrome Forecast
Issued by NWS

Home | Current Version | Previous Version | Text Only | Print | Product List | Glossary On
Versions: 1 2 3 4 5 6 7 8 9 10 11 12 13 14 15 16 17 18 19 20 21
000
FTUS43 KGRB 300900 AAA
TAFATW
TAF AMD
KATW 300934Z 3010/3106 33009KT P6SM SCT025 BKN035
     FM301700 32006KT P6SM SCT030 BKN150
     FM310000 21004KT P6SM BKN090=

USA.gov is the U.S. government's official web portal to all federal, state and local government web resources and services.